sensor_id;sensor_type;location;lat;lon;timestamp;P1;durP1;ratioP1;P2;durP2;ratioP2
8592;SDS011;4334;49.982;8.398;2022-09-17T00:02:02;4.73;;;1.47;;
8592;SDS011;4334;49.982;8.398;2022-09-17T00:04:31;3.60;;;1.60;;
8592;SDS011;4334;49.982;8.398;2022-09-17T00:06:58;5.23;;;1.73;;
8592;SDS011;4334;49.982;8.398;2022-09-17T00:09:24;5.57;;;1.80;;
8592;SDS011;4334;49.982;8.398;2022-09-17T00:11:53;3.73;;;1.30;;
8592;SDS011;4334;49.982;8.398;2022-09-17T00:14:19;5.53;;;1.50;;
8592;SDS011;4334;49.982;8.398;2022-09-17T00:16:47;6.63;;;1.40;;
8592;SDS011;4334;49.982;8.398;2022-09-17T00:19:14;4.70;;;1.50;;
8592;SDS011;4334;49.982;8.398;2022-09-17T00:21:43;4.27;;;1.40;;
8592;SDS011;4334;49.982;8.398;2022-09-17T00:24:10;3.10;;;1.30;;
8592;SDS011;4334;49.982;8.398;2022-09-17T00:26:38;3.07;;;1.30;;
8592;SDS011;4334;49.982;8.398;2022-09-17T00:29:06;4.17;;;1.50;;
8592;SDS011;4334;49.982;8.398;2022-09-17T00:31:34;3.93;;;1.97;;
8592;SDS011;4334;49.982;8.398;2022-09-17T00:34:02;5.67;;;1.70;;
8592;SDS011;4334;49.982;8.398;2022-09-17T00:36:30;3.67;;;1.30;;
8592;SDS011;4334;49.982;8.398;2022-09-17T00:38:59;4.17;;;1.80;;
8592;SDS011;4334;49.982;8.398;2022-09-17T00:41:27;2.93;;;1.60;;
8592;SDS011;4334;49.982;8.398;2022-09-17T00:43:56;4.87;;;1.57;;
8592;SDS011;4334;49.982;8.398;2022-09-17T00:46:28;3.80;;;1.50;;
8592;SDS011;4334;49.982;8.398;2022-09-17T00:49:00;5.27;;;1.73;;
8592;SDS011;4334;49.982;8.398;2022-09-17T00:51:32;5.93;;;1.60;;
8592;SDS011;4334;49.982;8.398;2022-09-17T00:54:02;5.40;;;1.77;;
8592;SDS011;4334;49.982;8.398;2022-09-17T00:56:31;4.33;;;1.60;;
8592;SDS011;4334;49.982;8.398;2022-09-17T00:59:00;3.07;;;1.60;;
8592;SDS011;4334;49.982;8.398;2022-09-17T01:01:30;3.70;;;1.43;;
8592;SDS011;4334;49.982;8.398;2022-09-17T01:03:58;6.43;;;2.13;;
8592;SDS011;4334;49.982;8.398;2022-09-17T01:06:27;3.47;;;2.00;;
8592;SDS011;4334;49.982;8.398;2022-09-17T01:09:03;5.13;;;1.67;;
8592;SDS011;4334;49.982;8.398;2022-09-17T01:11:42;9.97;;;1.90;;
8592;SDS011;4334;49.982;8.398;2022-09-17T01:14:21;4.33;;;1.80;;
8592;SDS011;4334;49.982;8.398;2022-09-17T01:17:06;4.27;;;2.10;;
8592;SDS011;4334;49.982;8.398;2022-09-17T01:22:52;5.97;;;1.80;;
8592;SDS011;4334;49.982;8.398;2022-09-17T01:25:40;6.67;;;2.00;;
8592;SDS011;4334;49.982;8.398;2022-09-17T01:28:26;6.57;;;2.03;;
8592;SDS011;4334;49.982;8.398;2022-09-17T01:31:02;4.10;;;2.00;;
8592;SDS011;4334;49.982;8.398;2022-09-17T01:33:32;5.73;;;1.90;;
8592;SDS011;4334;49.982;8.398;2022-09-17T01:36:05;5.90;;;1.87;;
8592;SDS011;4334;49.982;8.398;2022-09-17T01:38:37;5.17;;;1.70;;
8592;SDS011;4334;49.982;8.398;2022-09-17T01:41:05;4.03;;;1.80;;
8592;SDS011;4334;49.982;8.398;2022-09-17T01:43:35;4.47;;;1.90;;
8592;SDS011;4334;49.982;8.398;2022-09-17T01:46:06;5.10;;;1.73;;
8592;SDS011;4334;49.982;8.398;2022-09-17T01:48:36;6.90;;;2.10;;
8592;SDS011;4334;49.982;8.398;2022-09-17T01:51:05;5.40;;;1.97;;
8592;SDS011;4334;49.982;8.398;2022-09-17T01:53:35;4.73;;;1.80;;
8592;SDS011;4334;49.982;8.398;2022-09-17T01:56:04;5.40;;;1.70;;
8592;SDS011;4334;49.982;8.398;2022-09-17T01:58:32;5.00;;;2.03;;
8592;SDS011;4334;49.982;8.398;2022-09-17T02:01:01;4.17;;;1.70;;
8592;SDS011;4334;49.982;8.398;2022-09-17T02:03:33;3.33;;;1.73;;
8592;SDS011;4334;49.982;8.398;2022-09-17T02:06:02;6.40;;;2.10;;
8592;SDS011;4334;49.982;8.398;2022-09-17T02:08:33;3.40;;;1.70;;
8592;SDS011;4334;49.982;8.398;2022-09-17T02:11:02;4.33;;;1.60;;
8592;SDS011;4334;49.982;8.398;2022-09-17T02:13:32;3.33;;;1.70;;
8592;SDS011;4334;49.982;8.398;2022-09-17T02:16:03;2.90;;;1.77;;
8592;SDS011;4334;49.982;8.398;2022-09-17T02:18:33;5.70;;;1.90;;
8592;SDS011;4334;49.982;8.398;2022-09-17T02:21:05;2.80;;;1.60;;
8592;SDS011;4334;49.982;8.398;2022-09-17T02:23:33;6.70;;;1.90;;
8592;SDS011;4334;49.982;8.398;2022-09-17T02:26:03;2.73;;;1.70;;
8592;SDS011;4334;49.982;8.398;2022-09-17T02:28:32;7.03;;;2.50;;
8592;SDS011;4334;49.982;8.398;2022-09-17T02:31:03;8.00;;;1.80;;
8592;SDS011;4334;49.982;8.398;2022-09-17T02:33:30;7.53;;;1.90;;
8592;SDS011;4334;49.982;8.398;2022-09-17T02:36:00;4.57;;;1.70;;
8592;SDS011;4334;49.982;8.398;2022-09-17T02:38:28;4.80;;;1.93;;
8592;SDS011;4334;49.982;8.398;2022-09-17T02:40:58;5.37;;;1.80;;
8592;SDS011;4334;49.982;8.398;2022-09-17T02:43:29;4.40;;;2.00;;
8592;SDS011;4334;49.982;8.398;2022-09-17T02:46:01;5.77;;;1.90;;
8592;SDS011;4334;49.982;8.398;2022-09-17T02:48:49;5.13;;;1.73;;
8592;SDS011;4334;49.982;8.398;2022-09-17T02:51:26;3.80;;;1.83;;
8592;SDS011;4334;49.982;8.398;2022-09-17T02:54:00;3.57;;;1.67;;
8592;SDS011;4334;49.982;8.398;2022-09-17T02:56:32;6.03;;;1.90;;
8592;SDS011;4334;49.982;8.398;2022-09-17T02:59:03;10.13;;;2.20;;
8592;SDS011;4334;49.982;8.398;2022-09-17T03:01:33;4.43;;;1.60;;
8592;SDS011;4334;49.982;8.398;2022-09-17T03:04:04;4.17;;;1.73;;
8592;SDS011;4334;49.982;8.398;2022-09-17T03:06:34;3.83;;;1.97;;
8592;SDS011;4334;49.982;8.398;2022-09-17T03:09:02;7.53;;;2.10;;
8592;SDS011;4334;49.982;8.398;2022-09-17T03:11:29;6.73;;;1.87;;
8592;SDS011;4334;49.982;8.398;2022-09-17T03:13:57;5.97;;;1.90;;
8592;SDS011;4334;49.982;8.398;2022-09-17T03:16:24;6.27;;;1.90;;
8592;SDS011;4334;49.982;8.398;2022-09-17T03:18:51;6.17;;;1.90;;
8592;SDS011;4334;49.982;8.398;2022-09-17T03:21:18;8.00;;;1.90;;
8592;SDS011;4334;49.982;8.398;2022-09-17T03:23:47;4.07;;;1.90;;
8592;SDS011;4334;49.982;8.398;2022-09-17T03:26:14;3.93;;;1.70;;
8592;SDS011;4334;49.982;8.398;2022-09-17T03:28:41;3.87;;;1.77;;
8592;SDS011;4334;49.982;8.398;2022-09-17T03:31:08;4.60;;;1.80;;
8592;SDS011;4334;49.982;8.398;2022-09-17T03:33:35;7.37;;;2.07;;
8592;SDS011;4334;49.982;8.398;2022-09-17T03:36:02;5.33;;;1.90;;
8592;SDS011;4334;49.982;8.398;2022-09-17T03:38:30;5.13;;;2.30;;
8592;SDS011;4334;49.982;8.398;2022-09-17T03:40:59;5.13;;;2.10;;
8592;SDS011;4334;49.982;8.398;2022-09-17T03:43:27;5.67;;;1.93;;
8592;SDS011;4334;49.982;8.398;2022-09-17T03:45:54;7.60;;;2.53;;
8592;SDS011;4334;49.982;8.398;2022-09-17T03:48:21;4.67;;;1.90;;
8592;SDS011;4334;49.982;8.398;2022-09-17T03:50:49;4.57;;;2.13;;
8592;SDS011;4334;49.982;8.398;2022-09-17T03:53:16;8.77;;;2.37;;
8592;SDS011;4334;49.982;8.398;2022-09-17T03:55:43;6.00;;;2.50;;
8592;SDS011;4334;49.982;8.398;2022-09-17T03:58:11;5.20;;;2.30;;
8592;SDS011;4334;49.982;8.398;2022-09-17T04:00:38;5.70;;;2.40;;
8592;SDS011;4334;49.982;8.398;2022-09-17T04:03:07;11.77;;;2.37;;
8592;SDS011;4334;49.982;8.398;2022-09-17T04:05:34;5.57;;;2.30;;
8592;SDS011;4334;49.982;8.398;2022-09-17T04:08:01;7.13;;;2.33;;
8592;SDS011;4334;49.982;8.398;2022-09-17T04:10:28;7.00;;;2.47;;
8592;SDS011;4334;49.982;8.398;2022-09-17T04:12:55;8.90;;;2.63;;
8592;SDS011;4334;49.982;8.398;2022-09-17T04:15:23;6.67;;;2.73;;
8592;SDS011;4334;49.982;8.398;2022-09-17T04:17:53;5.60;;;2.50;;
8592;SDS011;4334;49.982;8.398;2022-09-17T04:20:21;7.03;;;2.90;;
8592;SDS011;4334;49.982;8.398;2022-09-17T04:22:49;5.00;;;2.33;;
8592;SDS011;4334;49.982;8.398;2022-09-17T04:25:16;7.60;;;2.77;;
8592;SDS011;4334;49.982;8.398;2022-09-17T04:27:43;6.13;;;2.80;;
8592;SDS011;4334;49.982;8.398;2022-09-17T04:30:11;7.30;;;2.80;;
8592;SDS011;4334;49.982;8.398;2022-09-17T04:32:41;6.73;;;2.80;;
8592;SDS011;4334;49.982;8.398;2022-09-17T04:35:08;5.50;;;2.40;;
8592;SDS011;4334;49.982;8.398;2022-09-17T04:37:35;9.20;;;3.37;;
8592;SDS011;4334;49.982;8.398;2022-09-17T04:40:02;6.63;;;2.40;;
8592;SDS011;4334;49.982;8.398;2022-09-17T04:42:30;6.57;;;2.53;;
8592;SDS011;4334;49.982;8.398;2022-09-17T04:44:57;6.23;;;2.43;;
8592;SDS011;4334;49.982;8.398;2022-09-17T04:47:24;6.73;;;2.63;;
8592;SDS011;4334;49.982;8.398;2022-09-17T04:49:53;5.63;;;2.67;;
8592;SDS011;4334;49.982;8.398;2022-09-17T04:52:20;4.47;;;2.63;;
8592;SDS011;4334;49.982;8.398;2022-09-17T04:54:47;6.43;;;2.47;;
8592;SDS011;4334;49.982;8.398;2022-09-17T04:57:14;4.93;;;2.50;;
8592;SDS011;4334;49.982;8.398;2022-09-17T04:59:41;6.83;;;2.63;;
8592;SDS011;4334;49.982;8.398;2022-09-17T05:02:08;3.67;;;2.17;;
8592;SDS011;4334;49.982;8.398;2022-09-17T05:04:35;8.77;;;2.80;;
8592;SDS011;4334;49.982;8.398;2022-09-17T05:07:04;6.70;;;2.70;;
8592;SDS011;4334;49.982;8.398;2022-09-17T05:09:31;7.80;;;3.03;;
8592;SDS011;4334;49.982;8.398;2022-09-17T05:11:58;6.83;;;2.87;;
8592;SDS011;4334;49.982;8.398;2022-09-17T05:14:25;6.00;;;2.80;;
8592;SDS011;4334;49.982;8.398;2022-09-17T05:16:52;11.93;;;2.40;;
8592;SDS011;4334;49.982;8.398;2022-09-17T05:19:19;4.60;;;2.40;;
8592;SDS011;4334;49.982;8.398;2022-09-17T05:21:46;6.27;;;2.50;;
8592;SDS011;4334;49.982;8.398;2022-09-17T05:24:14;6.23;;;2.20;;
8592;SDS011;4334;49.982;8.398;2022-09-17T05:26:41;3.97;;;2.40;;
8592;SDS011;4334;49.982;8.398;2022-09-17T05:29:08;7.00;;;2.60;;
8592;SDS011;4334;49.982;8.398;2022-09-17T05:31:35;3.93;;;2.30;;
8592;SDS011;4334;49.982;8.398;2022-09-17T05:34:02;7.20;;;3.10;;
8592;SDS011;4334;49.982;8.398;2022-09-17T05:36:29;5.83;;;2.53;;
8592;SDS011;4334;49.982;8.398;2022-09-17T05:38:56;5.83;;;2.40;;
8592;SDS011;4334;49.982;8.398;2022-09-17T05:41:24;4.53;;;2.37;;
8592;SDS011;4334;49.982;8.398;2022-09-17T05:43:51;5.90;;;2.20;;
8592;SDS011;4334;49.982;8.398;2022-09-17T05:46:18;3.60;;;2.30;;
8592;SDS011;4334;49.982;8.398;2022-09-17T05:48:45;4.43;;;2.40;;
8592;SDS011;4334;49.982;8.398;2022-09-17T05:51:12;6.83;;;2.60;;
8592;SDS011;4334;49.982;8.398;2022-09-17T05:53:39;8.17;;;2.90;;
8592;SDS011;4334;49.982;8.398;2022-09-17T05:56:06;7.67;;;2.70;;
8592;SDS011;4334;49.982;8.398;2022-09-17T05:58:38;7.83;;;3.10;;
8592;SDS011;4334;49.982;8.398;2022-09-17T06:01:05;6.90;;;2.60;;
8592;SDS011;4334;49.982;8.398;2022-09-17T06:03:32;7.13;;;2.90;;
8592;SDS011;4334;49.982;8.398;2022-09-17T06:05:59;5.47;;;2.83;;
8592;SDS011;4334;49.982;8.398;2022-09-17T06:08:26;7.83;;;2.60;;
8592;SDS011;4334;49.982;8.398;2022-09-17T06:10:54;7.93;;;2.77;;
8592;SDS011;4334;49.982;8.398;2022-09-17T06:13:22;6.23;;;2.47;;
8592;SDS011;4334;49.982;8.398;2022-09-17T06:15:50;7.00;;;2.90;;
8592;SDS011;4334;49.982;8.398;2022-09-17T06:18:18;8.13;;;2.73;;
8592;SDS011;4334;49.982;8.398;2022-09-17T06:20:51;7.50;;;2.63;;
8592;SDS011;4334;49.982;8.398;2022-09-17T06:23:18;7.60;;;2.17;;
8592;SDS011;4334;49.982;8.398;2022-09-17T06:25:49;7.30;;;2.33;;
8592;SDS011;4334;49.982;8.398;2022-09-17T06:28:17;5.77;;;2.07;;
8592;SDS011;4334;49.982;8.398;2022-09-17T06:30:44;6.67;;;2.30;;
8592;SDS011;4334;49.982;8.398;2022-09-17T06:33:12;5.10;;;2.20;;
8592;SDS011;4334;49.982;8.398;2022-09-17T06:35:39;6.53;;;2.27;;
8592;SDS011;4334;49.982;8.398;2022-09-17T06:38:06;7.03;;;2.33;;
8592;SDS011;4334;49.982;8.398;2022-09-17T06:40:33;6.80;;;2.30;;
8592;SDS011;4334;49.982;8.398;2022-09-17T06:43:00;11.67;;;2.40;;
8592;SDS011;4334;49.982;8.398;2022-09-17T06:45:27;7.03;;;2.67;;
8592;SDS011;4334;49.982;8.398;2022-09-17T06:47:54;5.77;;;2.20;;
8592;SDS011;4334;49.982;8.398;2022-09-17T06:50:22;7.30;;;2.20;;
8592;SDS011;4334;49.982;8.398;2022-09-17T06:52:49;6.77;;;1.97;;
8592;SDS011;4334;49.982;8.398;2022-09-17T06:55:16;4.53;;;1.83;;
8592;SDS011;4334;49.982;8.398;2022-09-17T06:57:43;5.63;;;2.50;;
8592;SDS011;4334;49.982;8.398;2022-09-17T07:00:10;5.80;;;2.03;;
8592;SDS011;4334;49.982;8.398;2022-09-17T07:02:38;6.60;;;2.57;;
8592;SDS011;4334;49.982;8.398;2022-09-17T07:05:05;6.93;;;1.80;;
8592;SDS011;4334;49.982;8.398;2022-09-17T07:07:34;4.17;;;2.00;;
8592;SDS011;4334;49.982;8.398;2022-09-17T07:10:01;8.13;;;2.00;;
8592;SDS011;4334;49.982;8.398;2022-09-17T07:12:28;3.93;;;2.03;;
8592;SDS011;4334;49.982;8.398;2022-09-17T07:14:55;6.73;;;2.10;;
8592;SDS011;4334;49.982;8.398;2022-09-17T07:17:22;5.93;;;2.37;;
8592;SDS011;4334;49.982;8.398;2022-09-17T07:19:49;4.33;;;2.13;;
8592;SDS011;4334;49.982;8.398;2022-09-17T07:22:16;7.17;;;2.00;;
8592;SDS011;4334;49.982;8.398;2022-09-17T07:24:44;5.17;;;2.03;;
8592;SDS011;4334;49.982;8.398;2022-09-17T07:27:11;5.43;;;2.20;;
8592;SDS011;4334;49.982;8.398;2022-09-17T07:29:38;9.57;;;2.00;;
8592;SDS011;4334;49.982;8.398;2022-09-17T07:32:05;5.57;;;2.37;;
8592;SDS011;4334;49.982;8.398;2022-09-17T07:34:32;6.10;;;1.90;;
8592;SDS011;4334;49.982;8.398;2022-09-17T07:36:59;5.47;;;2.10;;
8592;SDS011;4334;49.982;8.398;2022-09-17T07:39:26;5.80;;;1.87;;
8592;SDS011;4334;49.982;8.398;2022-09-17T07:41:55;5.40;;;2.00;;
8592;SDS011;4334;49.982;8.398;2022-09-17T07:44:22;8.37;;;2.20;;
8592;SDS011;4334;49.982;8.398;2022-09-17T07:46:49;5.13;;;2.00;;
8592;SDS011;4334;49.982;8.398;2022-09-17T07:49:16;4.27;;;1.97;;
8592;SDS011;4334;49.982;8.398;2022-09-17T07:51:43;6.47;;;1.90;;
8592;SDS011;4334;49.982;8.398;2022-09-17T07:54:10;6.73;;;2.13;;
8592;SDS011;4334;49.982;8.398;2022-09-17T07:56:37;9.10;;;2.17;;
8592;SDS011;4334;49.982;8.398;2022-09-17T07:59:06;8.50;;;2.20;;
8592;SDS011;4334;49.982;8.398;2022-09-17T08:01:34;7.03;;;2.27;;
8592;SDS011;4334;49.982;8.398;2022-09-17T08:04:01;4.63;;;1.90;;
8592;SDS011;4334;49.982;8.398;2022-09-17T08:06:29;5.57;;;1.70;;
8592;SDS011;4334;49.982;8.398;2022-09-17T08:08:56;5.87;;;2.30;;
8592;SDS011;4334;49.982;8.398;2022-09-17T08:11:24;7.07;;;2.03;;
8592;SDS011;4334;49.982;8.398;2022-09-17T08:13:52;6.50;;;2.00;;
8592;SDS011;4334;49.982;8.398;2022-09-17T08:16:21;6.47;;;1.80;;
8592;SDS011;4334;49.982;8.398;2022-09-17T08:18:52;5.77;;;1.97;;
8592;SDS011;4334;49.982;8.398;2022-09-17T08:21:19;5.00;;;1.60;;
8592;SDS011;4334;49.982;8.398;2022-09-17T08:23:46;5.47;;;2.10;;
8592;SDS011;4334;49.982;8.398;2022-09-17T08:26:14;4.90;;;2.07;;
8592;SDS011;4334;49.982;8.398;2022-09-17T08:28:43;6.57;;;2.37;;
8592;SDS011;4334;49.982;8.398;2022-09-17T08:31:10;8.07;;;2.20;;
8592;SDS011;4334;49.982;8.398;2022-09-17T08:33:39;8.10;;;2.10;;
8592;SDS011;4334;49.982;8.398;2022-09-17T08:36:06;6.00;;;2.00;;
8592;SDS011;4334;49.982;8.398;2022-09-17T08:38:36;8.80;;;2.00;;
8592;SDS011;4334;49.982;8.398;2022-09-17T08:41:05;6.87;;;2.23;;
8592;SDS011;4334;49.982;8.398;2022-09-17T08:43:44;8.90;;;2.30;;
8592;SDS011;4334;49.982;8.398;2022-09-17T08:46:12;6.67;;;1.87;;
8592;SDS011;4334;49.982;8.398;2022-09-17T08:48:41;7.00;;;2.10;;
8592;SDS011;4334;49.982;8.398;2022-09-17T08:51:14;5.03;;;2.10;;
8592;SDS011;4334;49.982;8.398;2022-09-17T08:53:45;4.67;;;1.90;;
8592;SDS011;4334;49.982;8.398;2022-09-17T08:56:15;7.57;;;2.00;;
8592;SDS011;4334;49.982;8.398;2022-09-17T08:58:54;6.37;;;2.17;;
8592;SDS011;4334;49.982;8.398;2022-09-17T09:01:26;4.33;;;1.80;;
8592;SDS011;4334;49.982;8.398;2022-09-17T09:04:03;5.40;;;2.00;;
8592;SDS011;4334;49.982;8.398;2022-09-17T09:07:05;5.67;;;2.00;;
8592;SDS011;4334;49.982;8.398;2022-09-17T09:09:34;5.43;;;1.80;;
8592;SDS011;4334;49.982;8.398;2022-09-17T09:12:04;5.20;;;1.90;;
8592;SDS011;4334;49.982;8.398;2022-09-17T09:14:37;4.30;;;2.23;;
8592;SDS011;4334;49.982;8.398;2022-09-17T09:17:11;2.83;;;1.60;;
8592;SDS011;4334;49.982;8.398;2022-09-17T09:19:41;3.80;;;1.67;;
8592;SDS011;4334;49.982;8.398;2022-09-17T09:22:22;6.33;;;1.90;;
8592;SDS011;4334;49.982;8.398;2022-09-17T09:25:02;4.07;;;1.43;;
8592;SDS011;4334;49.982;8.398;2022-09-17T09:27:37;4.10;;;1.57;;
8592;SDS011;4334;49.982;8.398;2022-09-17T09:30:12;5.80;;;2.20;;
8592;SDS011;4334;49.982;8.398;2022-09-17T09:32:47;7.60;;;2.23;;
8592;SDS011;4334;49.982;8.398;2022-09-17T09:35:24;5.87;;;2.03;;
8592;SDS011;4334;49.982;8.398;2022-09-17T09:37:54;3.63;;;1.43;;
8592;SDS011;4334;49.982;8.398;2022-09-17T09:40:29;3.03;;;1.40;;
8592;SDS011;4334;49.982;8.398;2022-09-17T09:42:59;5.93;;;1.47;;
8592;SDS011;4334;49.982;8.398;2022-09-17T09:45:32;4.07;;;1.50;;
8592;SDS011;4334;49.982;8.398;2022-09-17T09:48:02;2.63;;;1.23;;
8592;SDS011;4334;49.982;8.398;2022-09-17T09:50:37;3.87;;;1.50;;
8592;SDS011;4334;49.982;8.398;2022-09-17T09:53:09;1.73;;;0.93;;
8592;SDS011;4334;49.982;8.398;2022-09-17T09:55:45;2.17;;;1.30;;
8592;SDS011;4334;49.982;8.398;2022-09-17T09:58:33;3.03;;;1.60;;
8592;SDS011;4334;49.982;8.398;2022-09-17T10:01:02;2.10;;;1.40;;
8592;SDS011;4334;49.982;8.398;2022-09-17T10:03:37;7.03;;;1.73;;
8592;SDS011;4334;49.982;8.398;2022-09-17T10:06:07;3.90;;;1.70;;
8592;SDS011;4334;49.982;8.398;2022-09-17T10:08:36;4.37;;;1.43;;
8592;SDS011;4334;49.982;8.398;2022-09-17T10:11:05;2.27;;;1.43;;
8592;SDS011;4334;49.982;8.398;2022-09-17T10:13:44;4.90;;;1.40;;
8592;SDS011;4334;49.982;8.398;2022-09-17T10:16:15;4.13;;;1.80;;
8592;SDS011;4334;49.982;8.398;2022-09-17T10:18:43;4.73;;;1.70;;
8592;SDS011;4334;49.982;8.398;2022-09-17T10:21:18;3.83;;;1.73;;
8592;SDS011;4334;49.982;8.398;2022-09-17T10:23:47;3.27;;;1.40;;
8592;SDS011;4334;49.982;8.398;2022-09-17T10:28:49;4.23;;;1.40;;
8592;SDS011;4334;49.982;8.398;2022-09-17T10:31:18;4.03;;;1.57;;
8592;SDS011;4334;49.982;8.398;2022-09-17T10:33:54;4.80;;;1.83;;
8592;SDS011;4334;49.982;8.398;2022-09-17T10:36:35;2.77;;;1.60;;
8592;SDS011;4334;49.982;8.398;2022-09-17T10:41:57;4.97;;;1.60;;
8592;SDS011;4334;49.982;8.398;2022-09-17T10:44:26;2.87;;;1.67;;
8592;SDS011;4334;49.982;8.398;2022-09-17T10:46:55;3.53;;;1.60;;
8592;SDS011;4334;49.982;8.398;2022-09-17T10:49:33;3.87;;;1.53;;
8592;SDS011;4334;49.982;8.398;2022-09-17T10:52:05;3.67;;;1.50;;
8592;SDS011;4334;49.982;8.398;2022-09-17T10:54:48;3.63;;;1.50;;
8592;SDS011;4334;49.982;8.398;2022-09-17T10:57:53;5.17;;;1.53;;
8592;SDS011;4334;49.982;8.398;2022-09-17T11:00:28;5.07;;;1.50;;
8592;SDS011;4334;49.982;8.398;2022-09-17T11:09:15;2.87;;;1.43;;
8592;SDS011;4334;49.982;8.398;2022-09-17T11:11:54;3.73;;;1.50;;
8592;SDS011;4334;49.982;8.398;2022-09-17T11:14:34;5.07;;;1.47;;
8592;SDS011;4334;49.982;8.398;2022-09-17T11:17:12;4.70;;;1.50;;
8592;SDS011;4334;49.982;8.398;2022-09-17T11:19:54;6.70;;;1.63;;
8592;SDS011;4334;49.982;8.398;2022-09-17T11:22:27;5.23;;;1.63;;
8592;SDS011;4334;49.982;8.398;2022-09-17T11:27:54;4.60;;;1.40;;
8592;SDS011;4334;49.982;8.398;2022-09-17T11:30:30;4.80;;;1.17;;
8592;SDS011;4334;49.982;8.398;2022-09-17T11:33:16;2.30;;;1.43;;
8592;SDS011;4334;49.982;8.398;2022-09-17T11:35:52;4.10;;;1.23;;
8592;SDS011;4334;49.982;8.398;2022-09-17T11:38:26;4.47;;;1.37;;
8592;SDS011;4334;49.982;8.398;2022-09-17T11:41:03;4.93;;;1.47;;
8592;SDS011;4334;49.982;8.398;2022-09-17T11:43:33;7.93;;;1.23;;
8592;SDS011;4334;49.982;8.398;2022-09-17T11:46:04;6.37;;;1.40;;
8592;SDS011;4334;49.982;8.398;2022-09-17T11:48:36;3.40;;;1.50;;
8592;SDS011;4334;49.982;8.398;2022-09-17T11:53:57;3.67;;;1.57;;
8592;SDS011;4334;49.982;8.398;2022-09-17T11:56:30;3.10;;;1.43;;
8592;SDS011;4334;49.982;8.398;2022-09-17T11:59:01;3.75;;;1.20;;
8592;SDS011;4334;49.982;8.398;2022-09-17T12:01:34;4.45;;;1.38;;
8592;SDS011;4334;49.982;8.398;2022-09-17T12:04:14;3.38;;;1.38;;
8592;SDS011;4334;49.982;8.398;2022-09-17T12:06:59;4.05;;;1.38;;
8592;SDS011;4334;49.982;8.398;2022-09-17T12:09:32;3.88;;;1.20;;
8592;SDS011;4334;49.982;8.398;2022-09-17T12:12:04;2.55;;;1.08;;
8592;SDS011;4334;49.982;8.398;2022-09-17T12:14:38;3.45;;;1.30;;
8592;SDS011;4334;49.982;8.398;2022-09-17T12:17:12;4.75;;;1.75;;
8592;SDS011;4334;49.982;8.398;2022-09-17T12:19:45;2.13;;;1.10;;
8592;SDS011;4334;49.982;8.398;2022-09-17T12:22:16;1.95;;;1.10;;
8592;SDS011;4334;49.982;8.398;2022-09-17T12:24:48;1.98;;;1.05;;
8592;SDS011;4334;49.982;8.398;2022-09-17T12:27:18;4.07;;;1.30;;
8592;SDS011;4334;49.982;8.398;2022-09-17T12:30:07;4.00;;;1.50;;
8592;SDS011;4334;49.982;8.398;2022-09-17T12:32:47;2.50;;;1.30;;
8592;SDS011;4334;49.982;8.398;2022-09-17T12:35:32;3.15;;;1.08;;
8592;SDS011;4334;49.982;8.398;2022-09-17T12:38:14;2.42;;;1.05;;
8592;SDS011;4334;49.982;8.398;2022-09-17T12:40:52;4.07;;;1.17;;
8592;SDS011;4334;49.982;8.398;2022-09-17T12:46:31;2.73;;;1.10;;
8592;SDS011;4334;49.982;8.398;2022-09-17T12:49:16;2.83;;;1.10;;
8592;SDS011;4334;49.982;8.398;2022-09-17T12:51:54;0.97;;;0.80;;
8592;SDS011;4334;49.982;8.398;2022-09-17T12:54:32;3.20;;;1.00;;
8592;SDS011;4334;49.982;8.398;2022-09-17T12:57:23;2.30;;;1.03;;
8592;SDS011;4334;49.982;8.398;2022-09-17T12:59:59;2.93;;;1.23;;
8592;SDS011;4334;49.982;8.398;2022-09-17T13:02:31;1.80;;;1.03;;
8592;SDS011;4334;49.982;8.398;2022-09-17T13:05:15;2.57;;;1.13;;
8592;SDS011;4334;49.982;8.398;2022-09-17T13:08:11;1.90;;;1.30;;
8592;SDS011;4334;49.982;8.398;2022-09-17T13:14:13;2.40;;;1.00;;
8592;SDS011;4334;49.982;8.398;2022-09-17T13:16:48;2.50;;;1.20;;
8592;SDS011;4334;49.982;8.398;2022-09-17T13:19:27;3.40;;;1.83;;
8592;SDS011;4334;49.982;8.398;2022-09-17T13:22:04;1.90;;;0.83;;
8592;SDS011;4334;49.982;8.398;2022-09-17T13:24:34;2.67;;;1.00;;
8592;SDS011;4334;49.982;8.398;2022-09-17T13:27:02;2.00;;;0.83;;
8592;SDS011;4334;49.982;8.398;2022-09-17T13:38:14;2.73;;;1.17;;
8592;SDS011;4334;49.982;8.398;2022-09-17T13:40:46;1.63;;;0.70;;
8592;SDS011;4334;49.982;8.398;2022-09-17T13:43:14;1.77;;;1.00;;
8592;SDS011;4334;49.982;8.398;2022-09-17T13:48:36;3.67;;;1.10;;
8592;SDS011;4334;49.982;8.398;2022-09-17T13:54:14;1.70;;;0.80;;
8592;SDS011;4334;49.982;8.398;2022-09-17T13:56:45;2.65;;;1.00;;
8592;SDS011;4334;49.982;8.398;2022-09-17T13:59:14;1.63;;;1.00;;
8592;SDS011;4334;49.982;8.398;2022-09-17T14:01:54;1.23;;;0.90;;
8592;SDS011;4334;49.982;8.398;2022-09-17T14:07:32;2.63;;;1.00;;
8592;SDS011;4334;49.982;8.398;2022-09-17T14:10:01;0.95;;;0.55;;
8592;SDS011;4334;49.982;8.398;2022-09-17T14:13:00;0.98;;;0.77;;
8592;SDS011;4334;49.982;8.398;2022-09-17T14:15:55;1.65;;;0.85;;
8592;SDS011;4334;49.982;8.398;2022-09-17T14:21:26;2.53;;;0.85;;
8592;SDS011;4334;49.982;8.398;2022-09-17T14:23:56;1.20;;;0.63;;
8592;SDS011;4334;49.982;8.398;2022-09-17T14:26:36;2.13;;;0.93;;
8592;SDS011;4334;49.982;8.398;2022-09-17T14:29:15;0.97;;;0.60;;
8592;SDS011;4334;49.982;8.398;2022-09-17T14:31:50;2.03;;;1.10;;
8592;SDS011;4334;49.982;8.398;2022-09-17T14:34:18;2.17;;;1.17;;
8592;SDS011;4334;49.982;8.398;2022-09-17T14:36:48;1.25;;;0.85;;
8592;SDS011;4334;49.982;8.398;2022-09-17T14:39:19;2.50;;;1.23;;
8592;SDS011;4334;49.982;8.398;2022-09-17T14:41:47;1.98;;;0.95;;
8592;SDS011;4334;49.982;8.398;2022-09-17T14:44:17;1.90;;;0.80;;
8592;SDS011;4334;49.982;8.398;2022-09-17T14:46:46;1.10;;;0.70;;
8592;SDS011;4334;49.982;8.398;2022-09-17T14:49:18;2.60;;;0.90;;
8592;SDS011;4334;49.982;8.398;2022-09-17T14:51:46;1.83;;;0.90;;
8592;SDS011;4334;49.982;8.398;2022-09-17T14:54:16;1.80;;;1.08;;
8592;SDS011;4334;49.982;8.398;2022-09-17T14:56:50;1.77;;;1.10;;
8592;SDS011;4334;49.982;8.398;2022-09-17T14:59:27;1.23;;;1.00;;
8592;SDS011;4334;49.982;8.398;2022-09-17T15:02:02;2.27;;;1.00;;
8592;SDS011;4334;49.982;8.398;2022-09-17T15:04:29;2.80;;;0.87;;
8592;SDS011;4334;49.982;8.398;2022-09-17T15:07:06;1.40;;;0.93;;
8592;SDS011;4334;49.982;8.398;2022-09-17T15:09:35;1.40;;;0.80;;
8592;SDS011;4334;49.982;8.398;2022-09-17T15:12:02;2.80;;;1.40;;
8592;SDS011;4334;49.982;8.398;2022-09-17T15:14:32;3.17;;;1.00;;
8592;SDS011;4334;49.982;8.398;2022-09-17T15:17:02;2.07;;;1.03;;
8592;SDS011;4334;49.982;8.398;2022-09-17T15:19:30;1.77;;;0.93;;
8592;SDS011;4334;49.982;8.398;2022-09-17T15:22:01;5.73;;;0.90;;
8592;SDS011;4334;49.982;8.398;2022-09-17T15:24:35;3.70;;;1.00;;
8592;SDS011;4334;49.982;8.398;2022-09-17T15:27:08;3.17;;;0.80;;
8592;SDS011;4334;49.982;8.398;2022-09-17T15:29:39;1.33;;;0.77;;
8592;SDS011;4334;49.982;8.398;2022-09-17T15:32:10;2.07;;;0.83;;
8592;SDS011;4334;49.982;8.398;2022-09-17T15:34:37;4.40;;;0.90;;
8592;SDS011;4334;49.982;8.398;2022-09-17T15:37:05;3.33;;;1.10;;
8592;SDS011;4334;49.982;8.398;2022-09-17T15:39:38;1.90;;;0.93;;
8592;SDS011;4334;49.982;8.398;2022-09-17T15:42:15;2.60;;;1.10;;
8592;SDS011;4334;49.982;8.398;2022-09-17T15:44:46;2.03;;;0.90;;
8592;SDS011;4334;49.982;8.398;2022-09-17T15:50:05;1.63;;;0.70;;
8592;SDS011;4334;49.982;8.398;2022-09-17T15:52:37;1.70;;;0.90;;
8592;SDS011;4334;49.982;8.398;2022-09-17T15:57:59;4.20;;;1.10;;
8592;SDS011;4334;49.982;8.398;2022-09-17T16:00:27;0.80;;;0.60;;
8592;SDS011;4334;49.982;8.398;2022-09-17T16:02:55;2.63;;;1.10;;
8592;SDS011;4334;49.982;8.398;2022-09-17T16:08:21;1.30;;;0.90;;
8592;SDS011;4334;49.982;8.398;2022-09-17T16:10:51;1.07;;;0.70;;
8592;SDS011;4334;49.982;8.398;2022-09-17T16:13:17;3.00;;;1.40;;
8592;SDS011;4334;49.982;8.398;2022-09-17T16:15:45;1.90;;;0.93;;
8592;SDS011;4334;49.982;8.398;2022-09-17T16:18:12;1.40;;;0.80;;
8592;SDS011;4334;49.982;8.398;2022-09-17T16:20:39;2.13;;;1.00;;
8592;SDS011;4334;49.982;8.398;2022-09-17T16:23:06;1.27;;;0.87;;
8592;SDS011;4334;49.982;8.398;2022-09-17T16:25:33;1.60;;;0.60;;
8592;SDS011;4334;49.982;8.398;2022-09-17T16:28:05;1.27;;;0.50;;
8592;SDS011;4334;49.982;8.398;2022-09-17T16:30:35;1.23;;;0.60;;
8592;SDS011;4334;49.982;8.398;2022-09-17T16:33:02;0.60;;;0.40;;
8592;SDS011;4334;49.982;8.398;2022-09-17T16:35:30;0.40;;;0.40;;